Time;durP1;ratioP1;P1;durP2;ratioP2;P2;SDS_P1;SDS_P2;PMS_P1;PMS_P2;Temp;Humidity;BMP_temperature;BMP_pressure;BME280_temperature;BME280_humidity;BME280_pressure;Samples;Min_cycle;Max_cycle;Signal;HPM_P1;HPM_P2
2022/11/15 00:00:34;;;;;;;106.35;24.87;;;;;;;4.82;100.00;99066.75;4355704;32;20573;-75
2022/11/15 00:03:23;;;;;;;72.97;20.83;;;;;;;4.98;100.00;99124.16;4372474;32;20113;-74
2022/11/15 00:06:08;;;;;;;84.95;28.87;;;;;;;5.12;100.00;99130.28;4342202;32;20065;-74
2022/11/15 00:08:53;;;;;;;100.72;26.40;;;;;;;4.71;100.00;99114.41;4348373;32;20041;-74
2022/11/15 00:11:38;;;;;;;105.35;28.10;;;;;;;4.97;100.00;99118.03;4346207;32;20058;-75
2022/11/15 00:14:23;;;;;;;87.15;26.15;;;;;;;5.39;100.00;99121.12;4344515;32;20032;-74
2022/11/15 00:17:08;;;;;;;88.32;25.83;;;;;;;5.25;100.00;99116.91;4355757;32;20032;-74
2022/11/15 00:19:53;;;;;;;68.28;21.92;;;;;;;5.22;100.00;99087.97;4369125;32;20057;-75
2022/11/15 00:22:38;;;;;;;172.45;33.90;;;;;;;5.49;100.00;99120.66;4370688;32;20081;-75
2022/11/15 00:25:23;;;;;;;260.15;37.05;;;;;;;5.11;100.00;99065.41;4366952;32;20031;-74
2022/11/15 00:28:08;;;;;;;128.32;31.90;;;;;;;5.07;100.00;99065.03;4375261;32;20061;-74
2022/11/15 00:30:53;;;;;;;147.20;33.97;;;;;;;5.11;100.00;99107.31;4374158;32;20073;-74
2022/11/15 00:33:39;;;;;;;81.95;25.77;;;;;;;4.69;100.00;99067.62;4361413;32;20085;-74
2022/11/15 00:36:23;;;;;;;96.05;24.83;;;;;;;4.85;100.00;99095.69;4370682;32;20196;-74
2022/11/15 00:39:08;;;;;;;118.80;29.83;;;;;;;5.07;100.00;99057.03;4390117;32;20061;-74
2022/11/15 00:41:53;;;;;;;101.60;27.95;;;;;;;5.32;100.00;99056.25;4386558;32;20164;-74
2022/11/15 00:44:33;;;;;;;91.50;22.33;;;;;;;5.37;100.00;99075.12;4388378;32;20051;-74
2022/11/15 00:47:17;;;;;;;94.15;17.05;;;;;;;5.05;100.00;99085.75;4389686;32;20103;-73
2022/11/15 00:50:02;;;;;;;62.97;20.27;;;;;;;4.68;100.00;99055.34;4388948;32;20059;-74
2022/11/15 00:52:48;;;;;;;74.75;25.08;;;;;;;4.46;100.00;99052.12;4387583;32;20035;-74
2022/11/15 00:55:33;;;;;;;115.43;29.25;;;;;;;4.78;100.00;99081.56;4390493;32;20417;-76
2022/11/15 00:58:18;;;;;;;164.18;37.60;;;;;;;5.04;100.00;99070.78;4391385;32;20096;-74
2022/11/15 01:01:11;;;;;;;103.72;27.48;;;;;;;4.87;100.00;99069.63;4410237;32;20047;-73
2022/11/15 01:03:56;;;;;;;86.25;25.23;;;;;;;5.81;100.00;99078.72;4406518;32;20023;-74
2022/11/15 01:06:41;;;;;;;69.30;19.45;;;;;;;4.90;100.00;99069.22;4402891;32;20056;-74
2022/11/15 01:09:25;;;;;;;99.10;25.27;;;;;;;4.80;100.00;99063.50;4407622;32;20034;-74
2022/11/15 01:12:11;;;;;;;78.47;24.90;;;;;;;4.73;100.00;99031.50;4422777;32;20089;-74
2022/11/15 01:14:56;;;;;;;39.55;13.50;;;;;;;4.99;100.00;99062.59;4421299;32;20066;-74
2022/11/15 01:17:41;;;;;;;95.47;26.45;;;;;;;4.89;100.00;99030.22;4424416;32;20053;-74
2022/11/15 01:20:26;;;;;;;65.32;18.52;;;;;;;5.32;100.00;99050.91;4420210;32;20181;-74
2022/11/15 01:23:11;;;;;;;72.55;21.87;;;;;;;5.64;100.00;99042.91;4421719;32;20064;-74
2022/11/15 01:26:00;;;;;;;89.18;24.40;;;;;;;5.97;100.00;99020.47;4420585;32;20052;-73
2022/11/15 01:28:45;;;;;;;98.95;27.67;;;;;;;5.65;100.00;99031.19;4421896;32;20423;-73
2022/11/15 01:31:30;;;;;;;81.72;25.65;;;;;;;4.89;100.00;99030.22;4415448;32;20046;-74
2022/11/15 01:34:15;;;;;;;79.07;25.15;;;;;;;5.33;100.00;99023.19;4413602;32;20076;-73
2022/11/15 01:37:00;;;;;;;74.32;23.60;;;;;;;5.27;100.00;99018.72;4414769;32;20113;-73
2022/11/15 01:39:45;;;;;;;69.22;21.42;;;;;;;5.27;100.00;99032.87;4414859;32;20419;-73
2022/11/15 01:42:30;;;;;;;83.25;23.35;;;;;;;4.84;100.00;98974.00;4397404;32;20030;-74
2022/11/15 01:45:15;;;;;;;107.00;25.08;;;;;;;4.95;100.00;98949.31;4395187;32;20496;-73
2022/11/15 01:48:00;;;;;;;98.75;23.48;;;;;;;5.02;100.00;99003.44;4396223;32;20031;-72
2022/11/15 01:50:45;;;;;;;93.68;23.52;;;;;;;4.90;100.00;98973.97;4395457;32;20074;-73
2022/11/15 01:53:33;;;;;;;99.28;24.63;;;;;;;5.23;100.00;98982.78;4397135;32;20039;-73
2022/11/15 01:56:23;;;;;;;142.35;23.50;;;;;;;5.59;100.00;98981.31;4396123;32;20055;-73
2022/11/15 01:59:08;;;;;;;74.45;19.23;;;;;;;4.91;100.00;98964.09;4394966;32;20113;-73
2022/11/15 02:01:53;;;;;;;148.18;29.60;;;;;;;5.52;100.00;99001.87;4396535;32;20428;-73
2022/11/15 02:04:47;;;;;;;89.78;21.20;;;;;;;5.03;100.00;98951.72;4382140;32;20055;-73
2022/11/15 02:07:34;;;;;;;81.25;24.05;;;;;;;5.58;100.00;98968.97;4394942;32;20074;-73
2022/11/15 02:10:22;;;;;;;80.07;28.15;;;;;;;5.20;100.00;98967.19;4377835;32;20161;-72
2022/11/15 02:13:07;;;;;;;78.37;22.48;;;;;;;5.57;100.00;98988.72;4383182;32;20453;-73
2022/11/15 02:15:58;;;;;;;73.35;22.13;;;;;;;5.43;100.00;98982.66;4382951;32;20065;-72
2022/11/15 02:18:55;;;;;;;69.85;24.08;;;;;;;5.21;100.00;98984.88;4383230;32;20392;-73
2022/11/15 02:22:05;;;;;;;101.38;23.10;;;;;;;5.63;100.00;98986.00;4382263;32;20043;-72
2022/11/15 02:25:14;;;;;;;77.18;21.05;;;;;;;5.72;100.00;98951.78;4372128;32;20069;-73
2022/11/15 02:28:21;;;;;;;64.62;21.92;;;;;;;5.71;100.00;98984.06;4382475;32;20421;-74
2022/11/15 02:31:12;;;;;;;90.70;18.80;;;;;;;5.67;100.00;98983.69;4382981;32;20076;-74
2022/11/15 02:34:06;;;;;;;66.75;22.00;;;;;;;5.43;100.00;98977.31;4384399;32;20043;-74
2022/11/15 02:37:15;;;;;;;90.18;24.05;;;;;;;6.23;100.00;98981.13;4380891;32;20073;-74
2022/11/15 02:40:10;;;;;;;60.47;20.50;;;;;;;5.52;100.00;98980.53;4382307;32;20427;-74
2022/11/15 02:46:14;;;;;;;73.25;21.23;;;;;;;5.96;100.00;98982.22;4386332;32;20016;-74
2022/11/15 02:48:59;;;;;;;73.75;19.55;;;;;;;5.74;100.00;98957.72;4398099;32;20072;-74
2022/11/15 02:51:47;;;;;;;95.75;24.05;;;;;;;5.14;100.00;98931.53;4399284;32;20383;-74
2022/11/15 02:54:38;;;;;;;85.07;24.65;;;;;;;5.64;100.00;98962.75;4369206;32;20036;-74
2022/11/15 02:57:51;;;;;;;94.93;22.83;;;;;;;5.63;100.00;98929.06;4367846;32;20059;-74
2022/11/15 03:00:46;;;;;;;53.13;16.52;;;;;;;6.13;100.00;98950.38;4368354;32;20447;-74
2022/11/15 03:03:49;;;;;;;71.82;20.12;;;;;;;5.35;100.00;98919.66;4398947;32;20031;-72
2022/11/15 03:06:55;;;;;;;60.28;20.65;;;;;;;5.41;100.00;98958.03;4383049;32;20108;-73
2022/11/15 03:10:01;;;;;;;69.85;16.27;;;;;;;5.93;100.00;98952.41;4382415;32;20066;-74
2022/11/15 03:12:55;;;;;;;91.28;22.30;;;;;;;5.55;100.00;98953.38;4383582;32;20043;-73
2022/11/15 03:16:03;;;;;;;54.45;16.30;;;;;;;5.30;100.00;98914.16;4362174;32;20028;-74
2022/11/15 03:19:02;;;;;;;55.17;17.65;;;;;;;6.11;100.00;98957.81;4368281;32;20048;-73
2022/11/15 03:21:49;;;;;;;55.28;17.12;;;;;;;5.71;100.00;98915.44;4337053;33;20036;-73
2022/11/15 03:24:37;;;;;;;71.65;21.77;;;;;;;5.07;100.00;98910.25;4340462;32;20050;-73
2022/11/15 03:27:27;;;;;;;65.62;18.73;;;;;;;5.65;100.00;98913.66;4352671;32;20320;-72
2022/11/15 03:30:13;;;;;;;62.88;19.77;;;;;;;6.00;100.00;98919.28;4352851;32;20039;-72
2022/11/15 03:33:00;;;;;;;58.97;19.85;;;;;;;5.88;100.00;98933.56;4338871;33;20068;-72
2022/11/15 03:35:47;;;;;;;66.03;18.52;;;;;;;6.17;100.00;98940.91;4337871;33;20051;-73
2022/11/15 03:38:34;;;;;;;57.88;21.20;;;;;;;6.03;100.00;98936.72;4338890;33;20028;-73
2022/11/15 03:41:28;;;;;;;61.72;19.90;;;;;;;4.68;100.00;98832.09;4337376;33;20044;-73
2022/11/15 03:44:34;;;;;;;59.05;18.02;;;;;;;6.26;100.00;98937.91;4338434;33;20066;-73
2022/11/15 03:47:34;;;;;;;56.40;18.87;;;;;;;6.41;100.00;98932.97;4363486;32;20053;-73
2022/11/15 03:50:20;;;;;;;77.45;19.37;;;;;;;6.08;100.00;98928.84;4366407;32;20027;-73
2022/11/15 03:53:07;;;;;;;51.22;16.58;;;;;;;5.68;100.00;98899.84;4411546;32;20355;-73
2022/11/15 03:55:52;;;;;;;53.60;17.17;;;;;;;5.95;100.00;98915.59;4428013;32;20045;-73
2022/11/15 03:58:37;;;;;;;46.47;15.00;;;;;;;5.34;100.00;98920.69;4415648;32;20057;-74
2022/11/15 04:01:22;;;;;;;46.05;16.15;;;;;;;4.83;100.00;98909.16;4428936;32;20030;-73
2022/11/15 04:04:07;;;;;;;104.87;25.40;;;;;;;4.76;100.00;98907.56;4416890;32;20104;-73
2022/11/15 04:06:52;;;;;;;48.20;17.00;;;;;;;5.33;100.00;98849.66;4419420;32;20038;-73
2022/11/15 04:12:46;;;;;;;44.88;15.32;;;;;;;5.64;100.00;98904.00;4430650;32;20037;-73
2022/11/15 04:15:31;;;;;;;38.35;14.30;;;;;;;5.15;100.00;98846.94;4428562;32;20076;-73
2022/11/15 04:18:16;;;;;;;175.07;21.25;;;;;;;5.12;100.00;98911.41;4430426;32;20207;-73
2022/11/15 04:26:49;;;;;;;55.45;14.98;;;;;;;5.32;100.00;98842.66;4429090;32;20072;-74
2022/11/15 04:29:34;;;;;;;50.50;13.93;;;;;;;4.95;100.00;98877.28;4430263;32;20046;-73
2022/11/15 04:32:19;;;;;;;49.13;14.68;;;;;;;5.17;100.00;98890.22;4428224;32;20084;-73
2022/11/15 04:35:04;;;;;;;31.58;12.52;;;;;;;5.48;100.00;98872.53;4370463;32;20098;-73
2022/11/15 04:37:49;;;;;;;51.15;16.37;;;;;;;5.16;100.00;98843.25;4365317;32;20101;-73
2022/11/15 04:40:35;;;;;;;44.65;13.30;;;;;;;5.26;100.00;98827.53;4370373;32;20031;-73
2022/11/15 04:43:20;;;;;;;55.97;14.45;;;;;;;5.25;100.00;98876.62;4376785;32;20035;-73
2022/11/15 04:46:04;;;;;;;42.30;14.60;;;;;;;5.36;100.00;98877.75;4375365;32;20046;-73
2022/11/15 04:48:52;;;;;;;51.90;16.60;;;;;;;5.25;100.00;98871.28;4338066;33;20105;-74
2022/11/15 04:51:36;;;;;;;45.22;15.70;;;;;;;5.46;100.00;98876.22;4337838;33;20069;-74
2022/11/15 04:54:21;;;;;;;58.30;16.50;;;;;;;4.99;100.00;98877.66;4337902;33;20036;-73
2022/11/15 04:56:54;;;;;;;37.05;16.60;;;;;;;5.57;100.00;98881.88;4336827;33;20037;-73
2022/11/15 04:59:39;;;;;;;49.05;14.85;;;;;;;5.58;100.00;98878.16;4336557;33;20490;-73
2022/11/15 05:02:23;;;;;;;44.88;15.80;;;;;;;5.58;100.00;98868.28;4336591;33;20437;-73
2022/11/15 05:05:09;;;;;;;98.95;19.65;;;;;;;5.63;100.00;98833.72;4345893;32;20446;-72
2022/11/15 05:07:53;;;;;;;40.03;14.70;;;;;;;5.25;100.00;98858.75;4381473;32;20088;-72
2022/11/15 05:10:39;;;;;;;65.20;15.95;;;;;;;5.52;100.00;98868.34;4381674;32;20043;-73
2022/11/15 05:13:23;;;;;;;65.20;16.95;;;;;;;5.84;100.00;98874.41;4382274;32;20193;-73
2022/11/15 05:16:08;;;;;;;71.40;13.80;;;;;;;5.43;100.00;98865.97;4380985;32;20072;-73
2022/11/15 05:18:54;;;;;;;78.07;16.20;;;;;;;5.82;100.00;98882.66;4384952;32;20200;-74
2022/11/15 05:21:39;;;;;;;56.30;19.33;;;;;;;5.94;100.00;98879.22;4397537;32;20030;-73
2022/11/15 05:24:24;;;;;;;40.30;15.23;;;;;;;6.10;100.00;98859.94;4396949;32;20061;-73
2022/11/15 05:27:09;;;;;;;35.00;13.48;;;;;;;5.88;100.00;98874.78;4397392;32;20496;-73
2022/11/15 05:30:00;;;;;;;54.28;17.70;;;;;;;5.79;100.00;98872.41;4386897;32;20068;-74
2022/11/15 05:32:45;;;;;;;65.93;19.70;;;;;;;5.49;100.00;98866.97;4389879;32;20408;-74
2022/11/15 05:35:36;;;;;;;48.10;16.65;;;;;;;5.67;100.00;98865.34;4396901;32;20039;-74
2022/11/15 05:38:22;;;;;;;48.90;15.88;;;;;;;6.04;100.00;98874.19;4380309;32;20466;-73
2022/11/15 05:41:08;;;;;;;44.95;16.05;;;;;;;5.86;100.00;98804.72;4393438;32;20125;-73
2022/11/15 05:43:53;;;;;;;42.05;15.57;;;;;;;6.17;100.00;98860.69;4427491;32;20085;-73
2022/11/15 05:46:40;;;;;;;44.25;16.73;;;;;;;6.53;100.00;98853.62;4429790;32;20042;-73
2022/11/15 05:49:31;;;;;;;51.75;19.20;;;;;;;6.44;100.00;98816.72;4431014;32;20068;-73
2022/11/15 05:52:20;;;;;;;58.70;16.12;;;;;;;6.80;100.00;98853.22;4430655;32;20042;-74
2022/11/15 05:55:08;;;;;;;54.03;17.05;;;;;;;6.83;100.00;98852.78;4428467;32;20118;-73
2022/11/15 05:57:52;;;;;;;45.10;15.75;;;;;;;6.12;100.00;98849.84;4430094;32;20079;-74
2022/11/15 06:00:37;;;;;;;45.28;14.98;;;;;;;6.06;100.00;98863.28;4419601;32;20054;-74
2022/11/15 06:03:22;;;;;;;37.47;14.87;;;;;;;5.91;100.00;98818.22;4430294;32;20042;-74
2022/11/15 06:06:07;;;;;;;41.17;15.90;;;;;;;6.16;100.00;98848.34;4432860;32;20079;-75
2022/11/15 06:08:52;;;;;;;39.97;15.05;;;;;;;6.02;100.00;98852.22;4432698;32;20077;-74
2022/11/15 06:11:37;;;;;;;44.85;13.85;;;;;;;5.68;100.00;98797.50;4422795;32;20081;-72
2022/11/15 06:14:22;;;;;;;41.60;14.43;;;;;;;5.83;100.00;98848.72;4405376;32;20080;-73
2022/11/15 06:17:07;;;;;;;48.22;16.65;;;;;;;5.56;100.00;98810.81;4416339;32;20039;-73
2022/11/15 06:19:51;;;;;;;59.08;18.50;;;;;;;5.70;100.00;98833.66;4416983;32;20027;-73
2022/11/15 06:22:36;;;;;;;36.58;13.73;;;;;;;5.45;100.00;98817.69;4423602;32;20409;-73
2022/11/15 06:25:21;;;;;;;51.25;18.00;;;;;;;6.12;100.00;98841.81;4430945;32;20030;-74
2022/11/15 06:28:06;;;;;;;36.65;16.33;;;;;;;5.09;100.00;98764.03;4431595;32;20071;-73
2022/11/15 06:30:51;;;;;;;55.72;18.98;;;;;;;5.48;100.00;98803.09;4416494;32;20068;-73
2022/11/15 06:33:38;;;;;;;48.92;16.10;;;;;;;5.56;100.00;98842.84;4401528;32;20072;-74
2022/11/15 06:36:23;;;;;;;44.72;17.00;;;;;;;5.56;100.00;98826.81;4403467;32;20085;-73
2022/11/15 06:39:08;;;;;;;45.10;15.55;;;;;;;5.73;100.00;98849.25;4415494;32;20065;-74
2022/11/15 06:41:53;;;;;;;45.63;15.27;;;;;;;5.64;100.00;98810.50;4415171;32;20470;-74
2022/11/15 06:44:38;;;;;;;46.28;16.40;;;;;;;5.51;100.00;98840.03;4408209;32;20345;-74
2022/11/15 06:47:22;;;;;;;49.75;16.80;;;;;;;5.46;100.00;98833.50;4410565;32;20034;-73
2022/11/15 06:50:08;;;;;;;46.20;16.83;;;;;;;5.59;100.00;98837.06;4414821;32;20057;-75
2022/11/15 06:52:54;;;;;;;44.95;16.92;;;;;;;5.30;100.00;98801.19;4402140;32;20124;-74
2022/11/15 06:55:39;;;;;;;39.10;15.13;;;;;;;6.15;100.00;98819.97;4413123;32;20066;-74
2022/11/15 06:58:24;;;;;;;60.55;19.00;;;;;;;6.10;100.00;98845.78;4405251;32;20116;-74
2022/11/15 07:01:11;;;;;;;56.88;19.62;;;;;;;6.13;100.00;98814.03;4400691;32;20362;-73
2022/11/15 07:03:56;;;;;;;44.67;16.73;;;;;;;6.35;100.00;98838.44;4398420;32;20027;-73
2022/11/15 07:06:41;;;;;;;39.20;14.63;;;;;;;5.92;100.00;98807.31;4383951;32;20430;-74
2022/11/15 07:09:26;;;;;;;38.78;15.10;;;;;;;5.77;100.00;98837.06;4383630;32;20031;-77
2022/11/15 07:12:11;;;;;;;49.20;16.90;;;;;;;5.99;100.00;98844.66;4352094;32;20056;-76
2022/11/15 07:14:56;;;;;;;44.15;17.48;;;;;;;5.76;100.00;98806.06;4352528;32;20040;-75
2022/11/15 07:17:41;;;;;;;46.85;17.55;;;;;;;5.68;100.00;98851.78;4354095;32;20032;-75
2022/11/15 07:20:26;;;;;;;51.78;20.20;;;;;;;5.50;100.00;98804.47;4352100;32;20028;-74
2022/11/15 07:23:11;;;;;;;41.85;16.42;;;;;;;5.24;100.00;98842.94;4351882;32;20062;-72
2022/11/15 07:25:58;;;;;;;46.78;18.27;;;;;;;6.31;100.00;98844.47;4350122;32;20126;-73
2022/11/15 07:28:50;;;;;;;44.38;17.00;;;;;;;6.42;100.00;98841.00;4351952;32;20043;-73
2022/11/15 07:31:35;;;;;;;59.92;18.10;;;;;;;6.38;100.00;98842.50;4348390;32;20036;-73
2022/11/15 07:34:20;;;;;;;39.28;13.85;;;;;;;6.39;100.00;98849.50;4352007;32;20472;-74
2022/11/15 07:37:05;;;;;;;47.95;18.50;;;;;;;6.14;100.00;98850.44;4363477;32;20043;-74
2022/11/15 07:39:50;;;;;;;55.90;18.85;;;;;;;6.23;100.00;98842.09;4393958;32;20030;-74
2022/11/15 07:42:53;;;;;;;54.88;19.02;;;;;;;6.08;100.00;98837.97;4389255;32;20049;-75
2022/11/15 07:45:43;;;;;;;61.15;18.20;;;;;;;5.60;100.00;98857.37;4399536;32;20486;-73
2022/11/15 07:48:36;;;;;;;56.30;16.70;;;;;;;6.25;100.00;98850.72;4397289;32;20124;-73
2022/11/15 07:51:20;;;;;;;48.70;17.90;;;;;;;6.45;100.00;98840.56;4396904;32;20380;-73
2022/11/15 07:54:05;;;;;;;45.95;17.83;;;;;;;6.13;100.00;98842.66;4396822;32;20073;-73
2022/11/15 07:56:50;;;;;;;64.05;20.08;;;;;;;6.14;100.00;98818.38;4395273;32;20072;-74
2022/11/15 07:59:35;;;;;;;56.55;18.77;;;;;;;5.77;100.00;98804.19;4389711;32;20053;-74
2022/11/15 08:02:20;;;;;;;51.42;19.62;;;;;;;6.44;100.00;98833.56;4396259;32;20437;-75
2022/11/15 08:05:05;;;;;;;52.13;18.10;;;;;;;6.24;100.00;98822.31;4398843;32;20069;-73
2022/11/15 08:07:50;;;;;;;50.78;18.15;;;;;;;6.38;100.00;98810.41;4399237;32;20102;-73
2022/11/15 08:10:35;;;;;;;43.90;16.00;;;;;;;6.40;100.00;98784.28;4396759;32;20108;-73
2022/11/15 08:13:21;;;;;;;50.53;19.23;;;;;;;6.70;100.00;98820.84;4397679;32;20047;-73
2022/11/15 08:16:05;;;;;;;47.03;18.85;;;;;;;6.67;100.00;98821.31;4398281;32;20443;-74
2022/11/15 08:18:50;;;;;;;47.03;18.75;;;;;;;7.20;100.00;98811.63;4397190;32;20376;-73
2022/11/15 08:21:35;;;;;;;45.08;18.98;;;;;;;6.65;100.00;98785.94;4396655;32;20077;-73
2022/11/15 08:24:20;;;;;;;46.40;19.58;;;;;;;6.62;100.00;98783.72;4397041;32;20068;-73
2022/11/15 08:27:14;;;;;;;44.33;18.60;;;;;;;7.11;100.00;98805.78;4398801;32;20467;-73
2022/11/15 08:29:59;;;;;;;41.25;17.48;;;;;;;7.05;100.00;98758.50;4387144;32;20039;-74
2022/11/15 08:32:44;;;;;;;44.00;18.02;;;;;;;7.00;100.00;98750.37;4420772;32;20090;-75
2022/11/15 08:35:29;;;;;;;44.15;16.77;;;;;;;7.18;100.00;98760.97;4427137;32;20080;-74
2022/11/15 08:38:14;;;;;;;51.15;19.45;;;;;;;7.64;100.00;98788.75;4429801;32;20117;-75
2022/11/15 08:41:04;;;;;;;41.00;17.90;;;;;;;7.68;100.00;98794.44;4427290;32;20037;-73
2022/11/15 08:43:49;;;;;;;36.88;16.58;;;;;;;8.44;100.00;98796.16;4425306;32;20056;-73
2022/11/15 08:46:34;;;;;;;43.15;19.42;;;;;;;7.46;100.00;98791.56;4426397;32;20110;-74
2022/11/15 08:49:19;;;;;;;48.25;19.52;;;;;;;7.32;100.00;98747.31;4423414;32;20429;-73
2022/11/15 08:52:04;;;;;;;46.85;16.75;;;;;;;7.26;100.00;98783.91;4427185;32;20061;-74
2022/11/15 08:54:49;;;;;;;42.47;17.62;;;;;;;7.71;100.00;98744.91;4429001;32;20050;-74
2022/11/15 08:57:34;;;;;;;37.72;17.90;;;;;;;7.92;100.00;98781.78;4427326;32;20110;-74
2022/11/15 09:00:19;;;;;;;45.78;19.15;;;;;;;7.30;100.00;98778.88;4429251;32;21219;-73
2022/11/15 09:03:05;;;;;;;45.25;18.95;;;;;;;7.42;100.00;98779.69;4428063;32;20057;-74
2022/11/15 09:05:55;;;;;;;48.40;18.65;;;;;;;7.91;100.00;98782.81;4428086;32;20042;-73
2022/11/15 09:08:40;;;;;;;44.72;18.95;;;;;;;7.99;100.00;98774.44;4403929;32;20064;-73
2022/11/15 09:11:26;;;;;;;39.67;18.48;;;;;;;7.98;100.00;98778.16;4408242;32;20042;-73
2022/11/15 09:14:12;;;;;;;47.15;17.40;;;;;;;7.91;100.00;98731.88;4408269;32;20050;-72
2022/11/15 09:16:58;;;;;;;48.25;18.33;;;;;;;8.45;100.00;98760.25;4397735;32;20042;-72
2022/11/15 09:19:43;;;;;;;44.95;17.33;;;;;;;8.48;100.00;98770.50;4367227;32;20083;-73
2022/11/15 09:22:28;;;;;;;32.40;16.62;;;;;;;8.49;100.00;98739.94;4380866;32;20382;-73
2022/11/15 09:25:13;;;;;;;42.47;17.37;;;;;;;8.57;100.00;98744.88;4366345;32;20496;-75
2022/11/15 09:27:45;;;;;;;;;;;;;;;8.68;100.00;98725.19;4366447;32;20130;-74
2022/11/15 09:30:30;;;;;;;42.05;18.35;;;;;;;9.51;100.00;98772.03;4365565;32;19938;-72
2022/11/15 09:33:15;;;;;;;32.38;15.95;;;;;;;9.13;100.00;98765.63;4365874;32;20073;-73
2022/11/15 09:36:03;;;;;;;38.45;17.52;;;;;;;8.86;100.00;98761.72;4365392;32;20092;-73
2022/11/15 09:38:48;;;;;;;33.67;15.27;;;;;;;9.33;100.00;98765.87;4367250;32;20086;-72
2022/11/15 09:41:52;;;;;;;39.25;18.27;;;;;;;9.40;100.00;98747.72;4372731;32;20078;-73
2022/11/15 09:44:54;;;;;;;39.75;16.75;;;;;;;9.99;100.00;98757.81;4378144;32;20124;-73
2022/11/15 09:47:49;;;;;;;32.05;15.77;;;;;;;9.95;100.00;98747.81;4380737;32;20897;-73
2022/11/15 09:50:28;;;;;;;42.92;16.40;;;;;;;9.37;100.00;98724.03;4380608;32;20027;-73
2022/11/15 09:52:55;;;;;;;34.35;15.07;;;;;;;9.72;100.00;98714.78;4376906;32;20070;-72
2022/11/15 09:55:32;;;;;;;36.92;16.80;;;;;;;9.22;100.00;98743.44;4383027;32;20055;-72
2022/11/15 09:58:43;;;;;;;39.47;15.02;;;;;;;9.93;100.00;98740.00;4415579;32;20112;-73
2022/11/15 10:01:36;;;;;;;36.38;14.68;;;;;;;10.07;100.00;98737.72;4420038;32;20056;-72
2022/11/15 10:04:03;;;;;;;37.60;17.70;;;;;;;10.33;100.00;98714.59;4419618;32;20072;-72
2022/11/15 10:06:32;;;;;;;34.03;15.13;;;;;;;9.71;100.00;98697.00;4429966;32;20935;-73
2022/11/15 10:09:16;;;;;;;31.95;15.70;;;;;;;10.43;100.00;98724.62;4428025;32;20043;-73
2022/11/15 10:11:43;;;;;;;37.17;14.82;;;;;;;10.64;100.00;98720.25;4412683;32;20045;-73
2022/11/15 10:14:14;;;;;;;39.63;17.30;;;;;;;9.99;100.00;98703.22;4414214;32;20417;-74
2022/11/15 10:16:58;;;;;;;32.20;14.35;;;;;;;10.22;100.00;98712.84;4418770;32;20034;-73
2022/11/15 10:20:00;;;;;;;40.63;15.85;;;;;;;10.61;100.00;98714.53;4416501;32;20058;-72
2022/11/15 10:22:38;;;;;;;25.62;12.27;;;;;;;10.71;100.00;98704.66;4405943;32;20042;-74
2022/11/15 10:25:08;;;;;;;35.08;15.18;;;;;;;10.54;100.00;98710.19;4414369;32;20072;-73
2022/11/15 10:27:35;;;;;;;26.20;13.62;;;;;;;10.12;100.00;98710.88;4422105;32;20053;-74
2022/11/15 10:30:04;;;;;;;29.05;12.82;;;;;;;10.04;100.00;98689.81;4429258;32;20046;-75
2022/11/15 10:32:35;;;;;;;32.38;13.05;;;;;;;10.38;100.00;98686.91;4429873;32;20045;-73
2022/11/15 10:35:19;;;;;;;28.30;14.55;;;;;;;10.08;100.00;98615.59;4430194;32;20046;-73
2022/11/15 10:37:45;;;;;;;31.15;13.65;;;;;;;10.97;100.00;98687.88;4431755;32;20412;-73
2022/11/15 10:40:17;;;;;;;28.27;13.43;;;;;;;10.58;100.00;98645.06;4425448;32;20443;-73
2022/11/15 10:42:43;;;;;;;29.33;13.75;;;;;;;10.94;100.00;98677.63;4430089;32;20034;-73
2022/11/15 10:45:29;;;;;;;26.08;14.05;;;;;;;10.39;100.00;98679.66;4430903;32;20046;-73
2022/11/15 10:48:20;;;;;;;22.48;12.48;;;;;;;11.20;100.00;98676.69;4432398;32;20038;-73
2022/11/15 10:50:49;;;;;;;32.95;15.07;;;;;;;11.06;100.00;98672.84;4430627;32;20058;-73
2022/11/15 10:53:23;;;;;;;34.67;13.93;;;;;;;11.41;100.00;98674.09;4432338;32;20408;-73
2022/11/15 10:55:53;;;;;;;34.90;13.75;;;;;;;11.81;100.00;98667.19;4414450;32;20518;-73
2022/11/15 10:58:30;;;;;;;30.45;12.63;;;;;;;12.39;100.00;98658.09;4380862;32;20176;-73
2022/11/15 11:01:18;;;;;;;27.33;12.45;;;;;;;12.19;100.00;98657.03;4383129;32;20086;-72
2022/11/15 11:04:01;;;;;;;24.55;12.82;;;;;;;12.56;100.00;98628.91;4383519;32;20170;-73
2022/11/15 11:06:29;;;;;;;25.15;12.82;;;;;;;13.47;100.00;98657.88;4384280;32;20188;-73
2022/11/15 11:08:59;;;;;;;24.17;12.20;;;;;;;12.54;100.00;98658.09;4382135;32;20019;-73
2022/11/15 11:11:45;;;;;;;23.02;11.68;;;;;;;13.03;100.00;98649.31;4374547;32;20051;-73
2022/11/15 11:14:15;;;;;;;25.83;12.50;;;;;;;13.56;100.00;98661.59;4377845;32;20221;-72
2022/11/15 11:16:47;;;;;;;27.37;12.45;;;;;;;13.26;100.00;98652.53;4374113;32;20065;-73
2022/11/15 11:19:55;;;;;;;26.92;12.05;;;;;;;12.61;100.00;98631.59;4372744;32;20079;-73
2022/11/15 11:22:40;;;;;;;23.77;11.88;;;;;;;13.05;100.00;98652.59;4306013;33;20061;-73
2022/11/15 11:25:09;;;;;;;31.50;12.77;;;;;;;12.64;100.00;98636.47;4302540;33;20066;-73
2022/11/15 11:27:40;;;;;;;26.90;12.95;;;;;;;12.09;100.00;98630.00;4318745;33;20439;-73
2022/11/15 11:30:21;;;;;;;25.37;11.55;;;;;;;12.22;100.00;98640.28;4359809;32;20073;-72
2022/11/15 11:32:53;;;;;;;22.62;12.50;;;;;;;12.57;100.00;98635.13;4366352;32;20043;-72
2022/11/15 11:35:24;;;;;;;;;;;;;;;12.64;100.00;98631.06;4368319;32;20031;-72
2022/11/15 11:38:17;;;;;;;21.83;11.38;;;;;;;13.19;100.00;98630.38;4367617;32;19939;-72
2022/11/15 11:41:00;;;;;;;25.50;12.57;;;;;;;12.95;100.00;98625.56;4366908;32;20091;-73
2022/11/15 11:43:41;;;;;;;;;;;;;;;13.70;100.00;98622.00;4368217;32;20043;-73
2022/11/15 11:46:11;;;;;;;31.03;12.43;;;;;;;13.37;100.00;98623.53;4357400;32;20042;-72
2022/11/15 11:48:43;;;;;;;28.87;12.25;;;;;;;12.64;100.00;98595.94;4353398;32;20058;-73
2022/11/15 11:51:21;;;;;;;24.48;11.15;;;;;;;12.14;100.00;98595.75;4337505;33;20056;-73
2022/11/15 11:54:00;;;;;;;21.12;11.85;;;;;;;13.11;100.00;98601.22;4382318;32;20048;-73
2022/11/15 11:56:31;;;;;;;31.87;13.07;;;;;;;13.59;100.00;98598.81;4404787;32;20098;-73
2022/11/15 11:59:17;;;;;;;22.48;10.85;;;;;;;14.30;100.00;98604.81;4404872;32;20044;-74
2022/11/15 12:01:44;;;;;;;20.12;11.35;;;;;;;14.73;100.00;98629.34;4406503;32;20111;-73
2022/11/15 12:04:20;;;;;;;21.50;11.68;;;;;;;14.46;100.00;98619.81;4402601;32;20053;-72
2022/11/15 12:07:20;;;;;;;21.10;11.30;;;;;;;14.95;100.00;98609.03;4405458;32;20060;-73
2022/11/15 12:10:02;;;;;;;21.12;12.07;;;;;;;14.96;100.00;98578.16;4402732;32;20173;-73
2022/11/15 12:12:32;;;;;;;;;;;;;;;15.22;100.00;98609.28;4387223;32;20042;-72
2022/11/15 12:15:04;;;;;;;19.17;10.77;;;;;;;15.25;100.00;98592.44;4385439;32;19934;-74
2022/11/15 12:17:31;;;;;;;18.92;11.70;;;;;;;15.43;100.00;98587.31;4392517;32;20174;-73
2022/11/15 12:20:03;;;;;;;19.73;11.82;;;;;;;15.26;100.00;98556.06;4390938;32;20113;-72
2022/11/15 12:22:52;;;;;;;22.55;11.82;;;;;;;15.47;100.00;98593.75;4401252;32;20478;-77
2022/11/15 12:25:26;;;;;;;18.02;11.32;;;;;;;15.70;100.00;98554.09;4400910;32;20062;-74
2022/11/15 12:28:12;;;;;;;18.27;11.00;;;;;;;16.06;100.00;98555.44;4396207;32;20089;-73
2022/11/15 12:30:42;;;;;;;19.15;11.48;;;;;;;15.76;100.00;98568.37;4396650;32;20035;-73
2022/11/15 12:33:29;;;;;;;18.95;11.20;;;;;;;16.07;100.00;98567.94;4397702;32;20027;-76
2022/11/15 12:35:59;;;;;;;21.00;11.93;;;;;;;15.98;100.00;98571.28;4397937;32;20528;-73
2022/11/15 12:38:47;;;;;;;22.00;9.85;;;;;;;15.93;100.00;98548.88;4397604;32;20038;-74
2022/11/15 12:41:17;;;;;;;23.75;12.00;;;;;;;16.83;100.00;98579.31;4395385;32;20078;-73
2022/11/15 12:43:45;;;;;;;22.70;12.15;;;;;;;16.78;100.00;98565.00;4407571;32;20046;-73
2022/11/15 12:46:42;;;;;;;20.23;11.07;;;;;;;15.92;100.00;98563.53;4395807;32;20035;-73
2022/11/15 12:49:27;;;;;;;36.75;12.55;;;;;;;16.53;100.00;98559.75;4397258;32;20084;-74